createdAt,value
2018-11-01T00:01:23.364Z,100.00
2018-11-01T00:03:52.206Z,100.00
2018-11-01T00:06:20.910Z,100.00
2018-11-01T00:08:49.550Z,100.00
2018-11-01T00:11:18.298Z,100.00
2018-11-01T00:13:47.179Z,100.00
2018-11-01T00:16:33.760Z,100.00
2018-11-01T00:19:02.973Z,100.00
2018-11-01T00:21:33.514Z,100.00
2018-11-01T00:24:02.403Z,100.00
2018-11-01T00:26:31.320Z,100.00
2018-11-01T00:29:00.199Z,100.00
2018-11-01T00:31:29.027Z,100.00
2018-11-01T00:33:57.924Z,100.00
2018-11-01T00:36:26.708Z,100.00
2018-11-01T00:38:55.468Z,100.00
2018-11-01T00:41:24.768Z,100.00
2018-11-01T00:43:53.631Z,100.00
2018-11-01T00:46:22.475Z,100.00
2018-11-01T00:48:51.264Z,100.00
2018-11-01T00:51:20.722Z,100.00
2018-11-01T00:53:49.531Z,100.00
2018-11-01T00:56:18.299Z,100.00
2018-11-01T00:58:47.068Z,100.00
2018-11-01T01:01:15.837Z,100.00
2018-11-01T01:03:44.631Z,100.00
2018-11-01T01:06:13.293Z,100.00
2018-11-01T01:08:42.677Z,100.00
2018-11-01T01:11:11.431Z,100.00
2018-11-01T01:13:41.002Z,100.00
2018-11-01T01:16:10.416Z,100.00
2018-11-01T01:18:39.727Z,100.00
2018-11-01T01:21:09.374Z,100.00
2018-11-01T01:23:38.233Z,100.00
2018-11-01T01:26:07.298Z,100.00
2018-11-01T01:28:37.175Z,100.00
2018-11-01T01:31:06.030Z,100.00
2018-11-01T01:33:35.635Z,100.00
2018-11-01T01:36:04.895Z,100.00
2018-11-01T01:38:33.735Z,100.00
2018-11-01T01:41:03.843Z,100.00
2018-11-01T01:43:32.795Z,100.00
2018-11-01T01:46:01.666Z,100.00
2018-11-01T01:48:31.194Z,100.00
2018-11-01T01:50:59.976Z,100.00
2018-11-01T01:53:28.684Z,100.00
2018-11-01T01:55:57.639Z,100.00
2018-11-01T01:58:26.455Z,100.00
2018-11-01T02:00:55.220Z,100.00
2018-11-01T02:03:23.941Z,100.00
2018-11-01T02:05:52.728Z,100.00
2018-11-01T02:08:22.499Z,100.00
2018-11-01T02:10:51.461Z,100.00
2018-11-01T02:13:20.338Z,100.00
2018-11-01T02:15:50.475Z,100.00
2018-11-01T02:18:19.367Z,100.00
2018-11-01T02:20:48.303Z,100.00
2018-11-01T02:23:17.680Z,100.00
2018-11-01T02:25:46.615Z,100.00
2018-11-01T02:28:17.033Z,100.00
2018-11-01T02:30:46.008Z,100.00
2018-11-01T02:33:14.858Z,100.00
2018-11-01T02:35:43.800Z,100.00
2018-11-01T02:38:12.816Z,100.00
2018-11-01T02:40:42.256Z,100.00
2018-11-01T02:43:11.206Z,100.00
2018-11-01T02:45:40.505Z,100.00
2018-11-01T02:48:09.280Z,100.00
2018-11-01T02:50:38.104Z,100.00
2018-11-01T02:53:06.966Z,100.00
2018-11-01T02:55:35.784Z,100.00
2018-11-01T02:58:05.076Z,100.00
2018-11-01T03:00:34.554Z,100.00
2018-11-01T03:03:03.380Z,100.00
2018-11-01T03:05:32.236Z,100.00
2018-11-01T03:08:01.663Z,100.00
2018-11-01T03:10:30.486Z,100.00
2018-11-01T03:12:59.447Z,100.00
2018-11-01T03:15:29.139Z,100.00
2018-11-01T03:17:58.980Z,100.00
2018-11-01T03:20:27.776Z,100.00
2018-11-01T03:22:57.857Z,100.00
2018-11-01T03:25:26.950Z,100.00
2018-11-01T03:27:55.725Z,100.00
2018-11-01T03:30:24.645Z,100.00
2018-11-01T03:32:53.918Z,100.00
2018-11-01T03:35:22.637Z,100.00
2018-11-01T03:37:51.395Z,100.00
2018-11-01T03:40:20.692Z,100.00
2018-11-01T03:42:49.578Z,100.00
2018-11-01T03:45:18.259Z,100.00
2018-11-01T03:47:46.948Z,100.00
2018-11-01T03:50:16.957Z,100.00
2018-11-01T03:52:45.630Z,100.00
2018-11-01T03:55:15.115Z,100.00
2018-11-01T03:57:44.320Z,100.00
2018-11-01T04:00:15.291Z,100.00
2018-11-01T04:02:45.307Z,100.00
2018-11-01T04:05:14.052Z,100.00
2018-11-01T04:07:42.997Z,100.00
2018-11-01T04:10:12.924Z,100.00
2018-11-01T04:12:41.565Z,100.00
2018-11-01T04:15:13.407Z,100.00
2018-11-01T04:17:42.440Z,100.00
2018-11-01T04:20:12.352Z,100.00
2018-11-01T04:22:42.192Z,100.00
2018-11-01T04:25:12.031Z,100.00
2018-11-01T04:27:40.888Z,100.00
2018-11-01T04:30:10.370Z,100.00
2018-11-01T04:32:39.176Z,100.00
2018-11-01T04:35:08.461Z,100.00
2018-11-01T04:37:37.187Z,100.00
2018-11-01T04:40:06.800Z,100.00
2018-11-01T04:42:35.643Z,100.00
2018-11-01T04:45:04.373Z,100.00
2018-11-01T04:47:33.112Z,100.00
2018-11-01T04:50:02.982Z,100.00
2018-11-01T04:52:32.200Z,100.00
2018-11-01T04:55:01.023Z,100.00
2018-11-01T04:57:29.755Z,100.00
2018-11-01T04:59:59.065Z,100.00
2018-11-01T05:02:28.413Z,100.00
2018-11-01T05:04:58.117Z,100.00
2018-11-01T05:07:26.911Z,100.00
2018-11-01T05:09:55.564Z,100.00
2018-11-01T05:12:24.656Z,100.00
2018-11-01T05:14:53.419Z,100.00
2018-11-01T05:17:22.309Z,100.00
2018-11-01T05:19:51.672Z,100.00
2018-11-01T05:22:20.319Z,100.00
2018-11-01T05:24:49.669Z,100.00
2018-11-01T05:27:18.852Z,100.00
2018-11-01T05:29:47.739Z,100.00
2018-11-01T05:32:16.636Z,100.00
2018-11-01T05:34:45.459Z,100.00
2018-11-01T05:37:15.701Z,100.00
2018-11-01T05:39:45.050Z,100.00
2018-11-01T05:42:14.507Z,100.00
2018-11-01T05:44:43.947Z,100.00
2018-11-01T05:47:12.602Z,100.00
2018-11-01T05:49:41.433Z,100.00
2018-11-01T05:52:10.076Z,100.00
2018-11-01T05:54:38.795Z,100.00
2018-11-01T05:57:07.681Z,100.00
2018-11-01T05:59:36.475Z,100.00
2018-11-01T06:02:09.364Z,100.00
2018-11-01T06:04:38.012Z,100.00
2018-11-01T06:07:06.658Z,100.00
2018-11-01T06:09:35.407Z,100.00
2018-11-01T06:12:04.228Z,100.00
2018-11-01T06:14:33.044Z,100.00
2018-11-01T06:17:01.733Z,100.00
2018-11-01T06:19:30.515Z,100.00
2018-11-01T06:21:59.412Z,100.00
2018-11-01T06:24:28.090Z,100.00
2018-11-01T06:26:56.953Z,100.00
2018-11-01T06:29:27.243Z,100.00
2018-11-01T06:31:56.436Z,100.00
2018-11-01T06:34:29.609Z,100.00
2018-11-01T06:36:58.339Z,100.00
2018-11-01T06:39:27.116Z,100.00
2018-11-01T06:41:55.826Z,100.00
2018-11-01T06:44:24.649Z,100.00
2018-11-01T06:46:54.564Z,100.00
2018-11-01T06:49:23.445Z,100.00
2018-11-01T06:51:52.224Z,100.00
2018-11-01T06:54:21.069Z,100.00
2018-11-01T06:56:49.952Z,100.00
2018-11-01T06:59:19.194Z,100.00
2018-11-01T07:01:48.271Z,100.00
2018-11-01T07:04:17.155Z,100.00
2018-11-01T07:06:45.988Z,100.00
2018-11-01T07:09:16.369Z,100.00
2018-11-01T07:11:45.353Z,100.00
2018-11-01T07:14:14.050Z,100.00
2018-11-01T07:16:42.755Z,100.00
2018-11-01T07:19:11.484Z,100.00
2018-11-01T07:21:40.322Z,100.00
2018-11-01T07:24:09.798Z,100.00
2018-11-01T07:26:38.560Z,100.00
2018-11-01T07:29:07.297Z,100.00
2018-11-01T07:31:35.981Z,100.00
2018-11-01T07:34:04.674Z,100.00
2018-11-01T07:36:33.523Z,100.00
2018-11-01T07:39:02.301Z,100.00
2018-11-01T07:41:31.044Z,100.00
2018-11-01T07:43:59.890Z,100.00
2018-11-01T07:46:28.631Z,100.00
2018-11-01T07:48:57.312Z,100.00
2018-11-01T07:51:26.049Z,100.00
2018-11-01T07:53:54.748Z,100.00
2018-11-01T07:56:23.431Z,100.00
2018-11-01T07:58:52.112Z,100.00
2018-11-01T08:01:20.817Z,100.00
2018-11-01T08:03:49.528Z,100.00
2018-11-01T08:06:18.218Z,100.00
2018-11-01T08:08:46.991Z,100.00
2018-11-01T08:11:15.666Z,100.00
2018-11-01T08:13:44.419Z,100.00
2018-11-01T08:16:13.112Z,100.00
2018-11-01T08:18:41.808Z,100.00
2018-11-01T08:21:10.579Z,100.00
2018-11-01T08:23:39.189Z,100.00
2018-11-01T08:26:07.894Z,100.00
2018-11-01T08:28:36.571Z,100.00
2018-11-01T08:31:05.450Z,100.00
2018-11-01T08:33:34.148Z,100.00
2018-11-01T08:36:02.817Z,100.00
2018-11-01T08:38:31.516Z,100.00
2018-11-01T08:41:00.327Z,100.00
2018-11-01T08:43:28.988Z,100.00
2018-11-01T08:45:57.703Z,100.00
2018-11-01T08:48:26.384Z,100.00
2018-11-01T08:50:55.065Z,100.00
2018-11-01T08:53:23.751Z,100.00
2018-11-01T08:55:52.553Z,100.00
2018-11-01T08:58:21.208Z,100.00
2018-11-01T09:00:49.904Z,100.00
2018-11-01T09:03:18.601Z,100.00
2018-11-01T09:05:47.325Z,100.00
2018-11-01T09:08:16.016Z,100.00
2018-11-01T09:10:44.707Z,100.00
2018-11-01T09:13:13.435Z,100.00
2018-11-01T09:15:42.071Z,100.00
2018-11-01T09:18:10.732Z,100.00
2018-11-01T09:20:39.447Z,100.00
2018-11-01T09:23:08.190Z,100.00
2018-11-01T09:25:36.923Z,100.00
2018-11-01T09:28:05.794Z,100.00
2018-11-01T09:30:34.461Z,100.00
2018-11-01T09:33:03.224Z,100.00
2018-11-01T09:35:31.981Z,100.00
2018-11-01T09:38:01.222Z,100.00
2018-11-01T09:40:29.933Z,100.00
2018-11-01T09:42:58.599Z,100.00
2018-11-01T09:45:27.293Z,100.00
2018-11-01T09:47:55.991Z,99.94
2018-11-01T09:50:24.665Z,97.89
2018-11-01T09:52:53.329Z,96.59
2018-11-01T09:55:22.031Z,93.42
2018-11-01T09:57:50.716Z,91.21
2018-11-01T10:00:19.403Z,89.41
2018-11-01T10:02:48.117Z,87.41
2018-11-01T10:05:16.819Z,87.67
2018-11-01T10:07:45.550Z,87.68
2018-11-01T10:10:14.345Z,88.39
2018-11-01T10:12:43.026Z,88.26
2018-11-01T10:15:12.494Z,88.46
2018-11-01T10:17:41.723Z,87.81
2018-11-01T10:20:11.563Z,87.72
2018-11-01T10:22:40.464Z,86.21
2018-11-01T10:25:10.135Z,84.23
2018-11-01T10:27:38.944Z,84.33
2018-11-01T10:30:10.379Z,84.44
2018-11-01T10:32:39.037Z,84.86
2018-11-01T10:35:07.878Z,85.30
2018-11-01T10:37:36.885Z,85.21
2018-11-01T10:40:06.596Z,85.76
2018-11-01T10:42:35.256Z,84.26
2018-11-01T10:45:04.001Z,83.24
2018-11-01T10:47:32.705Z,81.41
2018-11-01T10:50:01.384Z,79.82
2018-11-01T10:52:30.083Z,79.72
2018-11-01T10:54:58.813Z,78.83
2018-11-01T10:57:27.515Z,77.96
2018-11-01T10:59:56.211Z,78.12
2018-11-01T11:02:26.434Z,77.79
2018-11-01T11:04:55.112Z,77.24
2018-11-01T11:07:23.974Z,76.11
2018-11-01T11:09:52.683Z,75.29
2018-11-01T11:12:21.471Z,73.88
2018-11-01T11:14:50.159Z,73.54
2018-11-01T11:17:18.823Z,73.39
2018-11-01T11:19:47.557Z,72.86
2018-11-01T11:22:17.067Z,74.22
2018-11-01T11:24:45.768Z,74.61
2018-11-01T11:27:14.483Z,73.13
2018-11-01T11:29:43.146Z,72.84
2018-11-01T11:32:11.824Z,73.81
2018-11-01T11:34:40.510Z,72.50
2018-11-01T11:37:09.193Z,71.95
2018-11-01T11:39:37.898Z,72.34
2018-11-01T11:42:06.744Z,72.47
2018-11-01T11:44:35.396Z,72.71
2018-11-01T11:47:04.080Z,73.90
2018-11-01T11:49:32.803Z,74.90
2018-11-01T11:52:01.534Z,76.32
2018-11-01T11:54:30.473Z,76.69
2018-11-01T11:56:59.215Z,76.46
2018-11-01T11:59:27.917Z,74.47
2018-11-01T12:01:56.620Z,69.72
2018-11-01T12:04:25.319Z,68.75
2018-11-01T12:06:54.000Z,68.82
2018-11-01T12:09:22.700Z,68.50
2018-11-01T12:11:51.385Z,69.46
2018-11-01T12:14:20.134Z,70.70
2018-11-01T12:16:48.771Z,70.81
2018-11-01T12:19:17.443Z,68.16
2018-11-01T12:21:46.157Z,67.53
2018-11-01T12:24:14.879Z,67.61
2018-11-01T12:26:43.532Z,68.34
2018-11-01T12:29:12.220Z,68.58
2018-11-01T12:31:40.895Z,69.54
2018-11-01T12:34:09.588Z,69.00
2018-11-01T12:36:38.222Z,69.27
2018-11-01T12:39:08.053Z,69.76
2018-11-01T12:41:36.826Z,68.95
2018-11-01T12:44:05.585Z,68.30
2018-11-01T12:46:34.405Z,68.84
2018-11-01T12:49:03.105Z,69.35
2018-11-01T12:51:31.796Z,68.46
2018-11-01T12:54:00.494Z,68.21
2018-11-01T12:56:29.350Z,68.29
2018-11-01T12:58:57.885Z,68.26
2018-11-01T13:01:26.557Z,66.58
2018-11-01T13:03:55.764Z,65.97
2018-11-01T13:06:24.951Z,65.72
2018-11-01T13:08:53.608Z,65.69
2018-11-01T13:11:22.284Z,65.34
2018-11-01T13:13:50.968Z,65.99
2018-11-01T13:16:19.760Z,66.44
2018-11-01T13:18:48.413Z,67.44
2018-11-01T13:21:17.120Z,69.28
2018-11-01T13:23:45.991Z,69.91
2018-11-01T13:26:14.708Z,70.52
2018-11-01T13:28:43.428Z,71.02
2018-11-01T13:31:12.113Z,71.64
2018-11-01T13:33:40.855Z,71.53
2018-11-01T13:36:09.558Z,69.38
2018-11-01T13:38:38.248Z,69.74
2018-11-01T13:41:07.476Z,70.04
2018-11-01T13:43:35.912Z,70.54
2018-11-01T13:46:04.678Z,71.35
2018-11-01T13:48:33.434Z,72.93
2018-11-01T13:51:02.103Z,73.67
2018-11-01T13:53:30.792Z,73.05
2018-11-01T13:55:59.478Z,72.16
2018-11-01T13:58:28.185Z,72.59
2018-11-01T14:00:56.838Z,72.99
2018-11-01T14:03:25.537Z,73.02
2018-11-01T14:05:54.305Z,72.51
2018-11-01T14:08:22.919Z,71.65
2018-11-01T14:10:51.605Z,71.50
2018-11-01T14:13:20.470Z,71.12
2018-11-01T14:15:49.054Z,71.88
2018-11-01T14:18:17.704Z,72.40
2018-11-01T14:20:46.593Z,72.65
2018-11-01T14:23:15.314Z,73.02
2018-11-01T14:25:44.008Z,73.16
2018-11-01T14:28:12.687Z,74.42
2018-11-01T14:30:41.387Z,73.57
2018-11-01T14:33:10.125Z,73.48
2018-11-01T14:35:38.794Z,73.56
2018-11-01T14:38:07.458Z,76.53
2018-11-01T14:40:36.136Z,80.79
2018-11-01T14:43:05.185Z,84.32
2018-11-01T14:45:33.862Z,87.61
2018-11-01T14:48:02.570Z,89.65
2018-11-01T14:50:31.346Z,91.59
2018-11-01T14:53:01.088Z,92.61
2018-11-01T14:55:30.366Z,91.92
2018-11-01T14:57:58.640Z,91.77
2018-11-01T15:00:26.274Z,90.06
2018-11-01T15:02:54.985Z,89.56
2018-11-01T15:05:23.671Z,87.73
2018-11-01T15:07:52.433Z,84.83
2018-11-01T15:10:21.127Z,84.95
2018-11-01T15:12:49.893Z,82.01
2018-11-01T15:15:18.576Z,82.05
2018-11-01T15:17:47.266Z,83.31
2018-11-01T15:20:15.995Z,83.73
2018-11-01T15:22:44.713Z,84.42
2018-11-01T15:25:13.445Z,85.09
2018-11-01T15:27:42.112Z,85.48
2018-11-01T15:30:13.872Z,86.29
2018-11-01T15:32:42.623Z,87.53
2018-11-01T15:35:11.368Z,87.82
2018-11-01T15:37:40.196Z,88.87
2018-11-01T15:40:10.316Z,89.92
2018-11-01T15:42:39.169Z,90.48
2018-11-01T15:45:08.962Z,90.98
2018-11-01T15:47:38.052Z,91.43
2018-11-01T15:50:07.534Z,92.59
2018-11-01T15:52:36.265Z,92.34
2018-11-01T15:55:06.238Z,92.51
2018-11-01T15:57:35.460Z,92.17
2018-11-01T16:00:04.320Z,92.01
2018-11-01T16:02:33.182Z,91.94
2018-11-01T16:05:01.881Z,92.79
2018-11-01T16:07:30.630Z,92.94
2018-11-01T16:09:59.357Z,93.13
2018-11-01T16:12:28.118Z,93.61
2018-11-01T16:14:56.831Z,93.76
2018-11-01T16:17:25.504Z,94.17
2018-11-01T16:19:55.016Z,94.08
2018-11-01T16:22:23.695Z,93.90
2018-11-01T16:24:52.402Z,93.97
2018-11-01T16:27:21.153Z,93.80
2018-11-01T16:29:49.841Z,93.63
2018-11-01T16:32:19.648Z,93.81
2018-11-01T16:34:48.373Z,94.39
2018-11-01T16:37:17.264Z,94.40
2018-11-01T16:39:45.905Z,94.56
2018-11-01T16:42:14.646Z,95.10
2018-11-01T16:44:43.354Z,95.26
2018-11-01T16:47:12.279Z,95.31
2018-11-01T16:49:40.940Z,96.07
2018-11-01T16:52:09.657Z,96.25
2018-11-01T16:54:38.335Z,96.65
2018-11-01T16:57:07.176Z,96.78
2018-11-01T16:59:35.879Z,97.07
2018-11-01T17:02:04.685Z,97.63
2018-11-01T17:04:33.367Z,97.12
2018-11-01T17:07:02.248Z,97.73
2018-11-01T17:09:31.595Z,98.01
2018-11-01T17:12:00.288Z,97.64
2018-11-01T17:14:28.986Z,97.99
2018-11-01T17:16:57.708Z,97.69
2018-11-01T17:19:26.391Z,98.04
2018-11-01T17:21:55.081Z,97.74
2018-11-01T17:24:23.769Z,97.18
2018-11-01T17:26:52.469Z,97.16
2018-11-01T17:29:21.171Z,97.75
2018-11-01T17:31:49.868Z,97.58
2018-11-01T17:34:18.655Z,97.80
2018-11-01T17:36:47.297Z,98.69
2018-11-01T17:39:15.991Z,98.92
2018-11-01T17:41:44.700Z,99.41
2018-11-01T17:44:13.630Z,99.76
2018-11-01T17:46:42.374Z,99.96
2018-11-01T17:49:11.064Z,100.00
2018-11-01T17:51:39.784Z,100.00
2018-11-01T17:54:12.584Z,100.00
2018-11-01T17:56:41.790Z,100.00
2018-11-01T17:59:10.766Z,100.00
2018-11-01T18:01:39.588Z,100.00
2018-11-01T18:04:08.845Z,100.00
2018-11-01T18:06:37.760Z,100.00
2018-11-01T18:09:09.809Z,100.00
2018-11-01T18:11:38.563Z,100.00
2018-11-01T18:14:07.543Z,100.00
2018-11-01T18:16:36.324Z,100.00
2018-11-01T18:19:05.040Z,100.00
2018-11-01T18:21:33.831Z,100.00
2018-11-01T18:24:02.677Z,100.00
2018-11-01T18:26:31.386Z,100.00
2018-11-01T18:29:00.241Z,100.00
2018-11-01T18:31:29.043Z,100.00
2018-11-01T18:33:57.877Z,100.00
2018-11-01T18:36:26.691Z,100.00
2018-11-01T18:38:55.397Z,100.00
2018-11-01T18:41:24.100Z,100.00
2018-11-01T18:43:52.972Z,100.00
2018-11-01T18:46:21.693Z,100.00
2018-11-01T18:48:50.396Z,100.00
2018-11-01T18:51:19.096Z,100.00
2018-11-01T18:53:47.851Z,100.00
2018-11-01T18:56:16.481Z,100.00
2018-11-01T18:58:45.278Z,100.00
2018-11-01T19:01:14.061Z,100.00
2018-11-01T19:03:42.916Z,100.00
2018-11-01T19:06:11.664Z,100.00
2018-11-01T19:08:40.328Z,100.00
2018-11-01T19:11:09.079Z,100.00
2018-11-01T19:13:37.987Z,100.00
2018-11-01T19:16:06.676Z,100.00
2018-11-01T19:18:35.304Z,100.00
2018-11-01T19:21:04.029Z,100.00
2018-11-01T19:23:32.761Z,100.00
2018-11-01T19:26:01.473Z,100.00
2018-11-01T19:28:30.191Z,100.00
2018-11-01T19:30:58.889Z,100.00
2018-11-01T19:33:27.625Z,100.00
2018-11-01T19:35:56.299Z,100.00
2018-11-01T19:38:24.996Z,100.00
2018-11-01T19:40:53.674Z,100.00
2018-11-01T19:43:22.333Z,100.00
2018-11-01T19:45:51.131Z,100.00
2018-11-01T19:48:19.915Z,100.00
2018-11-01T19:50:48.548Z,100.00
2018-11-01T19:53:17.281Z,100.00
2018-11-01T19:55:45.978Z,100.00
2018-11-01T19:58:14.674Z,100.00
2018-11-01T20:00:43.385Z,100.00
2018-11-01T20:03:12.080Z,100.00
2018-11-01T20:05:40.744Z,100.00
2018-11-01T20:08:09.439Z,100.00
2018-11-01T20:10:38.151Z,100.00
2018-11-01T20:13:06.860Z,100.00
2018-11-01T20:15:35.576Z,100.00
2018-11-01T20:18:04.272Z,100.00
2018-11-01T20:20:33.544Z,100.00
2018-11-01T20:23:02.174Z,100.00
2018-11-01T20:25:30.866Z,100.00
2018-11-01T20:27:59.545Z,100.00
2018-11-01T20:30:28.223Z,100.00
2018-11-01T20:32:56.996Z,100.00
2018-11-01T20:35:25.707Z,100.00
2018-11-01T20:37:54.390Z,100.00
2018-11-01T20:40:23.065Z,100.00
2018-11-01T20:42:51.771Z,100.00
2018-11-01T20:45:20.483Z,100.00
2018-11-01T20:47:49.220Z,100.00
2018-11-01T20:50:18.033Z,100.00
2018-11-01T20:52:46.625Z,100.00
2018-11-01T20:55:15.298Z,100.00
2018-11-01T20:57:44.051Z,100.00
2018-11-01T21:00:14.252Z,100.00
2018-11-01T21:02:43.000Z,100.00
2018-11-01T21:05:12.012Z,100.00
2018-11-01T21:07:40.616Z,100.00
2018-11-01T21:10:10.021Z,100.00
2018-11-01T21:12:39.339Z,100.00
2018-11-01T21:15:09.881Z,100.00
2018-11-01T21:17:38.593Z,100.00
2018-11-01T21:20:07.471Z,100.00
2018-11-01T21:22:36.166Z,100.00
2018-11-01T21:25:05.147Z,100.00
2018-11-01T21:27:33.872Z,100.00
2018-11-01T21:30:02.875Z,100.00
2018-11-01T21:32:31.621Z,100.00
2018-11-01T21:35:00.616Z,100.00
2018-11-01T21:37:29.338Z,100.00
2018-11-01T21:39:58.040Z,100.00
2018-11-01T21:42:26.873Z,100.00
2018-11-01T21:44:55.564Z,100.00
2018-11-01T21:47:24.391Z,100.00
2018-11-01T21:49:53.136Z,100.00
2018-11-01T21:52:21.808Z,100.00
2018-11-01T21:54:50.546Z,100.00
2018-11-01T21:57:19.325Z,100.00
2018-11-01T21:59:48.053Z,100.00
2018-11-01T22:02:16.774Z,100.00
2018-11-01T22:04:45.803Z,100.00
2018-11-01T22:07:14.565Z,100.00
2018-11-01T22:09:43.449Z,100.00
2018-11-01T22:12:12.085Z,100.00
2018-11-01T22:14:40.724Z,100.00
2018-11-01T22:17:09.398Z,100.00
2018-11-01T22:19:38.102Z,100.00
2018-11-01T22:22:06.779Z,100.00
2018-11-01T22:24:35.478Z,100.00
2018-11-01T22:27:04.204Z,100.00
2018-11-01T22:29:32.941Z,100.00
2018-11-01T22:32:01.600Z,100.00
2018-11-01T22:34:30.282Z,100.00
2018-11-01T22:36:58.989Z,100.00
2018-11-01T22:39:27.686Z,100.00
2018-11-01T22:41:56.391Z,100.00
2018-11-01T22:44:25.046Z,100.00
2018-11-01T22:46:53.730Z,100.00
2018-11-01T22:49:22.418Z,100.00
2018-11-01T22:51:51.094Z,100.00
2018-11-01T22:54:19.781Z,100.00
2018-11-01T22:56:48.621Z,100.00
2018-11-01T22:59:17.288Z,100.00
2018-11-01T23:01:45.989Z,100.00
2018-11-01T23:04:14.643Z,100.00
2018-11-01T23:06:43.323Z,100.00
2018-11-01T23:09:12.056Z,100.00
2018-11-01T23:11:41.026Z,100.00
2018-11-01T23:14:09.788Z,100.00
2018-11-01T23:16:38.460Z,100.00
2018-11-01T23:19:07.125Z,100.00
2018-11-01T23:21:35.802Z,100.00
2018-11-01T23:24:04.630Z,100.00
2018-11-01T23:26:33.298Z,100.00
2018-11-01T23:29:01.981Z,100.00
2018-11-01T23:31:30.652Z,100.00
2018-11-01T23:33:59.320Z,100.00
2018-11-01T23:36:27.057Z,100.00
2018-11-01T23:39:00.936Z,100.00
2018-11-01T23:41:34.729Z,100.00
2018-11-01T23:44:08.624Z,100.00
2018-11-01T23:46:42.481Z,100.00
2018-11-01T23:49:13.860Z,100.00
2018-11-01T23:51:43.090Z,100.00
2018-11-01T23:54:11.760Z,100.00
2018-11-01T23:56:40.419Z,100.00
2018-11-01T23:59:09.138Z,100.00
